Time;durP1;ratioP1;P1;durP2;ratioP2;P2;SDS_P1;SDS_P2;PMS_P1;PMS_P2;Temp;Humidity;BMP_temperature;BMP_pressure;BME280_temperature;BME280_humidity;BME280_pressure;Samples;Min_cycle;Max_cycle;Signal;HPM_P1;HPM_P2
2021/09/07 00:00:55;;;;;;;23.40;14.85;;;;;;;17.24;90.88;102431.56;5048132;28;21545;-61
2021/09/07 00:03:21;;;;;;;26.48;15.00;;;;;;;17.22;91.40;102431.69;5042311;28;20165;-60
2021/09/07 00:05:48;;;;;;;25.17;14.88;;;;;;;17.17;91.98;102428.66;5047283;28;20139;-61
2021/09/07 00:08:14;;;;;;;21.65;14.70;;;;;;;17.16;91.90;102433.13;5045232;28;20087;-61
2021/09/07 00:10:41;;;;;;;20.73;14.32;;;;;;;17.17;92.21;102426.88;5035432;28;20052;-61
2021/09/07 00:13:07;;;;;;;22.05;13.27;;;;;;;17.17;91.81;102426.00;5049341;28;20140;-61
2021/09/07 00:15:34;;;;;;;24.52;13.52;;;;;;;17.16;92.81;102414.56;5040405;28;20068;-61
2021/09/07 00:18:00;;;;;;;22.67;14.80;;;;;;;17.17;92.37;102416.25;5047077;28;20055;-61
2021/09/07 00:20:27;;;;;;;22.27;14.75;;;;;;;17.18;92.54;102411.78;5040834;28;20049;-61
2021/09/07 00:22:53;;;;;;;23.17;14.65;;;;;;;17.20;92.23;102415.94;5044236;28;20136;-61
2021/09/07 00:25:20;;;;;;;22.95;14.27;;;;;;;17.27;92.38;102416.19;5041020;28;20411;-61
2021/09/07 00:27:49;;;;;;;23.52;14.25;;;;;;;17.30;91.83;102407.09;5043021;28;20886;-62
2021/09/07 00:30:15;;;;;;;23.67;15.27;;;;;;;17.33;92.73;102415.56;5045337;28;20457;-62
2021/09/07 00:32:42;;;;;;;23.67;15.55;;;;;;;17.34;93.23;102414.56;5043262;28;20584;-61
2021/09/07 00:35:11;;;;;;;23.83;14.57;;;;;;;17.33;93.41;102404.97;5045696;28;20148;-62
2021/09/07 00:37:41;;;;;;;25.33;15.43;;;;;;;17.40;93.03;102407.81;5032385;28;20401;-61
2021/09/07 00:40:10;;;;;;;22.33;14.15;;;;;;;17.43;92.74;102399.56;5045248;28;20140;-61
2021/09/07 00:42:37;;;;;;;23.13;14.93;;;;;;;17.45;92.12;102400.25;5044138;28;20084;-61
2021/09/07 00:45:06;;;;;;;28.30;15.20;;;;;;;17.44;93.54;102393.28;5042196;28;20220;-61
2021/09/07 00:47:33;;;;;;;23.80;14.90;;;;;;;17.44;93.13;102390.63;5046942;28;20107;-61
2021/09/07 00:50:00;;;;;;;24.42;15.85;;;;;;;17.45;93.12;102396.78;5032344;28;20051;-61
2021/09/07 00:52:27;;;;;;;24.85;14.57;;;;;;;17.46;92.75;102396.59;5041814;28;20076;-61
2021/09/07 00:54:55;;;;;;;23.33;14.93;;;;;;;17.48;93.15;102396.44;5037498;28;20076;-61
2021/09/07 00:57:25;;;;;;;;;;;;;;;17.50;92.84;102391.81;5047508;28;20143;-61
2021/09/07 00:59:53;;;;;;;20.00;13.23;;;;;;;17.52;92.77;102392.50;5034786;28;20027;-60
2021/09/07 01:02:20;;;;;;;24.02;15.00;;;;;;;17.53;93.91;102389.69;5046701;28;20072;-61
2021/09/07 01:04:47;;;;;;;22.35;14.05;;;;;;;17.53;93.89;102392.34;5038757;28;20159;-61
2021/09/07 01:07:13;;;;;;;22.30;14.02;;;;;;;17.54;93.79;102394.03;5034078;28;20048;-61
2021/09/07 01:09:41;;;;;;;24.02;14.20;;;;;;;17.55;94.16;102389.56;5026395;28;20059;-62
2021/09/07 01:12:09;;;;;;;23.58;14.10;;;;;;;17.54;94.15;102388.72;5037784;28;20161;-61
2021/09/07 01:14:38;;;;;;;26.98;14.75;;;;;;;17.55;94.87;102386.91;5045816;28;20555;-62
2021/09/07 01:17:14;;;;;;;;;;;;;;;17.55;95.51;102394.88;5041959;28;20542;-61
2021/09/07 01:19:42;;;;;;;23.83;14.43;;;;;;;17.52;95.73;102379.25;5038099;28;19924;-61
2021/09/07 01:22:09;;;;;;;22.60;14.95;;;;;;;17.50;96.02;102379.38;5046614;28;20049;-61
2021/09/07 01:24:35;;;;;;;22.92;13.55;;;;;;;17.50;95.94;102382.03;5018977;28;20786;-61
2021/09/07 01:27:05;;;;;;;22.50;13.55;;;;;;;17.51;96.37;102388.19;5047461;28;20152;-62
2021/09/07 01:29:34;;;;;;;21.58;14.13;;;;;;;17.50;96.27;102387.34;5039510;28;20084;-62
2021/09/07 01:32:02;;;;;;;21.83;14.73;;;;;;;17.53;95.96;102392.34;5038310;28;20140;-62
2021/09/07 01:34:29;;;;;;;22.88;14.90;;;;;;;17.56;95.14;102385.91;5038505;28;20127;-62
2021/09/07 01:36:57;;;;;;;23.40;15.05;;;;;;;17.59;94.45;102386.44;5047601;28;20172;-62
2021/09/07 01:39:24;;;;;;;24.03;14.67;;;;;;;17.64;94.10;102390.44;5044262;28;20144;-61
2021/09/07 01:41:51;;;;;;;22.52;14.75;;;;;;;17.65;94.30;102392.13;5039030;28;20402;-61
2021/09/07 01:44:19;;;;;;;28.00;15.40;;;;;;;17.69;93.64;102396.13;5039210;28;20085;-61
2021/09/07 01:46:46;;;;;;;25.20;14.93;;;;;;;17.70;93.22;102393.31;5032913;28;20083;-61
2021/09/07 01:49:14;;;;;;;23.07;14.87;;;;;;;17.72;92.59;102398.44;5043294;28;20601;-61
2021/09/07 01:51:43;;;;;;;26.20;14.88;;;;;;;17.70;92.09;102388.00;5036460;28;20548;-61
2021/09/07 01:54:11;;;;;;;28.10;15.90;;;;;;;17.76;90.81;102397.19;5044089;28;20423;-62
2021/09/07 01:56:38;;;;;;;24.08;15.57;;;;;;;17.73;91.24;102393.00;5037709;28;20106;-62
2021/09/07 01:59:04;;;;;;;25.02;15.65;;;;;;;17.72;90.08;102401.97;5040801;28;21013;-61
2021/09/07 02:01:31;;;;;;;27.77;15.52;;;;;;;17.71;90.81;102400.28;5040145;28;20552;-60
2021/09/07 02:03:58;;;;;;;25.67;15.23;;;;;;;17.71;90.80;102394.97;5035399;28;20054;-61
2021/09/07 02:06:25;;;;;;;22.33;13.73;;;;;;;17.73;89.47;102389.50;5042398;28;21232;-60
2021/09/07 02:08:51;;;;;;;27.60;14.75;;;;;;;17.71;90.63;102397.63;5011871;28;20147;-61
2021/09/07 02:11:18;;;;;;;22.50;14.50;;;;;;;17.72;90.73;102401.09;5036071;28;20179;-61
2021/09/07 02:13:44;;;;;;;25.75;15.57;;;;;;;17.73;90.62;102394.81;5035361;28;20077;-62
2021/09/07 02:16:11;;;;;;;24.42;14.52;;;;;;;17.70;91.36;102392.47;5040825;28;20045;-62
2021/09/07 02:18:37;;;;;;;24.98;14.60;;;;;;;17.68;92.17;102394.44;5043580;28;20154;-61
2021/09/07 02:21:04;;;;;;;21.75;14.45;;;;;;;17.58;93.89;102392.75;5032513;28;20144;-61
2021/09/07 02:23:30;;;;;;;24.73;14.77;;;;;;;17.62;93.25;102395.06;5036646;28;20493;-61
2021/09/07 02:25:56;;;;;;;23.85;14.80;;;;;;;17.65;92.98;102390.28;5031292;28;20503;-62
2021/09/07 02:28:23;;;;;;;22.23;14.05;;;;;;;17.67;92.53;102393.63;5042367;28;20076;-59
2021/09/07 02:30:50;;;;;;;19.65;12.98;;;;;;;17.66;92.80;102391.13;5032576;28;20086;-61
2021/09/07 02:33:17;;;;;;;24.33;13.88;;;;;;;17.66;92.82;102391.97;5045011;28;20172;-61
2021/09/07 02:35:43;;;;;;;21.77;14.07;;;;;;;17.65;93.03;102392.94;5022601;28;20152;-60
2021/09/07 02:38:10;;;;;;;23.13;13.65;;;;;;;17.59;92.47;102388.25;5033028;28;20457;-61
2021/09/07 02:40:37;;;;;;;27.55;13.90;;;;;;;17.64;92.74;102383.34;5041009;28;20139;-60
2021/09/07 02:43:04;;;;;;;24.38;14.10;;;;;;;17.68;91.55;102386.47;5035014;28;20084;-61
2021/09/07 02:45:30;;;;;;;21.35;13.63;;;;;;;17.71;91.67;102391.50;5041331;28;20480;-61
2021/09/07 02:47:57;;;;;;;21.65;13.70;;;;;;;17.72;91.78;102391.34;5033536;28;20132;-60
2021/09/07 02:50:24;;;;;;;23.50;14.43;;;;;;;17.75;91.89;102385.72;5031521;28;20663;-61
2021/09/07 02:52:50;;;;;;;23.60;12.90;;;;;;;17.75;91.83;102384.88;5041950;28;20128;-62
2021/09/07 02:55:17;;;;;;;23.65;13.80;;;;;;;17.75;92.45;102385.72;5032710;28;20154;-61
2021/09/07 02:57:43;;;;;;;20.95;13.15;;;;;;;17.74;92.33;102383.22;5042438;28;20080;-61
2021/09/07 03:00:10;;;;;;;21.40;13.32;;;;;;;17.70;92.73;102385.38;5033374;28;20136;-59
2021/09/07 03:02:36;;;;;;;23.85;14.05;;;;;;;17.70;92.55;102385.38;5035466;28;20049;-61
2021/09/07 03:05:04;;;;;;;24.92;14.02;;;;;;;17.69;92.17;102383.69;5028377;28;20500;-62
2021/09/07 03:07:30;;;;;;;24.48;14.93;;;;;;;17.69;92.21;102383.69;5041684;28;20045;-61
2021/09/07 03:09:57;;;;;;;23.50;14.57;;;;;;;17.70;91.79;102385.38;5041233;28;20072;-62
2021/09/07 03:12:23;;;;;;;26.90;15.27;;;;;;;17.71;92.51;102391.50;5036695;28;20639;-61
2021/09/07 03:14:50;;;;;;;23.00;14.25;;;;;;;17.68;92.65;102382.03;5041142;28;20144;-60
2021/09/07 03:17:17;;;;;;;29.58;14.73;;;;;;;17.68;93.64;102382.03;5028564;28;20140;-61
2021/09/07 03:19:43;;;;;;;26.27;14.75;;;;;;;17.68;93.83;102381.16;5035650;28;20388;-61
2021/09/07 03:22:09;;;;;;;24.27;14.00;;;;;;;17.63;94.62;102376.34;5033221;28;20132;-62
2021/09/07 03:24:36;;;;;;;25.02;13.77;;;;;;;17.59;95.01;102372.34;5040578;28;20139;-62
2021/09/07 03:27:03;;;;;;;22.13;14.10;;;;;;;17.56;95.51;102376.16;5040207;28;20055;-62
2021/09/07 03:29:29;;;;;;;25.83;15.60;;;;;;;17.52;95.76;102379.25;5033304;28;20140;-62
2021/09/07 03:31:56;;;;;;;30.73;14.60;;;;;;;17.49;96.51;102374.25;5036828;28;20072;-61
2021/09/07 03:34:22;;;;;;;23.20;13.73;;;;;;;17.48;96.14;102375.22;5028414;28;20143;-61
2021/09/07 03:36:48;;;;;;;25.35;13.77;;;;;;;17.46;96.26;102371.91;5041428;28;20068;-61
2021/09/07 03:39:15;;;;;;;25.30;14.43;;;;;;;17.49;96.17;102377.75;5033677;28;20597;-61
2021/09/07 03:41:42;;;;;;;29.20;16.00;;;;;;;17.49;95.76;102376.91;5040256;28;20149;-61
2021/09/07 03:44:08;;;;;;;25.85;15.13;;;;;;;17.51;95.33;102369.63;5040242;28;20084;-61
2021/09/07 03:46:35;;;;;;;25.92;14.73;;;;;;;17.52;94.97;102365.97;5026782;28;20206;-61
2021/09/07 03:49:01;;;;;;;24.52;14.60;;;;;;;17.54;94.73;102366.66;5041824;28;20140;-61
2021/09/07 03:51:28;;;;;;;25.90;14.82;;;;;;;17.53;94.82;102362.34;5031092;28;20159;-61
2021/09/07 03:53:54;;;;;;;25.40;15.02;;;;;;;17.54;94.74;102370.16;5040524;28;20499;-61
2021/09/07 03:56:21;;;;;;;24.02;14.25;;;;;;;17.52;94.22;102365.97;5014414;28;20794;-61
2021/09/07 03:58:47;;;;;;;23.25;14.07;;;;;;;17.47;95.93;102366.44;5037444;28;20070;-62
2021/09/07 04:01:14;;;;;;;22.85;14.13;;;;;;;17.44;95.60;102365.91;5026066;28;20079;-60
2021/09/07 04:03:41;;;;;;;24.23;14.25;;;;;;;17.39;95.77;102363.75;5040726;28;20103;-61
2021/09/07 04:06:07;;;;;;;29.75;14.23;;;;;;;17.36;95.79;102353.44;5039203;28;20523;-61
2021/09/07 04:08:34;;;;;;;21.45;14.48;;;;;;;17.33;95.73;102356.41;5033317;28;20069;-61
2021/09/07 04:11:00;;;;;;;21.33;12.68;;;;;;;17.29;95.12;102366.47;5021546;28;20578;-61
2021/09/07 04:13:27;;;;;;;26.48;14.80;;;;;;;17.24;96.29;102359.97;5030019;28;20144;-61
2021/09/07 04:15:53;;;;;;;25.80;14.43;;;;;;;17.16;96.24;102350.94;5033372;28;20195;-61
2021/09/07 04:18:20;;;;;;;26.45;15.57;;;;;;;17.12;96.17;102354.88;5032613;28;20056;-61
2021/09/07 04:20:46;;;;;;;28.33;15.63;;;;;;;17.10;96.17;102361.34;5038941;28;20140;-61
2021/09/07 04:23:13;;;;;;;26.52;16.65;;;;;;;17.04;96.23;102362.78;5041567;28;20151;-61
2021/09/07 04:25:39;;;;;;;25.55;15.23;;;;;;;17.00;96.54;102356.94;5015235;28;20456;-61
2021/09/07 04:28:06;;;;;;;28.20;15.07;;;;;;;16.98;96.25;102363.38;5035522;28;20139;-61
2021/09/07 04:30:32;;;;;;;26.30;15.00;;;;;;;16.93;96.79;102357.69;5027940;28;20132;-61
2021/09/07 04:32:59;;;;;;;23.80;14.95;;;;;;;16.88;96.07;102363.44;5041754;28;20103;-61
2021/09/07 04:35:25;;;;;;;25.70;14.57;;;;;;;16.85;96.52;102368.22;5030366;28;20177;-62
2021/09/07 04:37:52;;;;;;;25.48;14.63;;;;;;;16.80;96.86;102369.47;5040219;28;20055;-61
2021/09/07 04:40:18;;;;;;;26.33;14.95;;;;;;;16.75;97.49;102377.03;5042015;28;20524;-62
2021/09/07 04:42:45;;;;;;;24.83;15.05;;;;;;;16.72;98.14;102381.78;5030999;28;20055;-61
2021/09/07 04:45:11;;;;;;;24.35;15.55;;;;;;;16.65;98.02;102378.91;5042903;28;20076;-61
2021/09/07 04:47:38;;;;;;;24.55;15.40;;;;;;;16.64;98.33;102379.03;5036769;28;20095;-61
2021/09/07 04:50:06;;;;;;;24.85;15.73;;;;;;;16.66;98.15;102382.38;5041885;28;20139;-61
2021/09/07 04:52:32;;;;;;;29.73;16.45;;;;;;;16.65;98.35;102373.59;5036617;28;20604;-62
2021/09/07 04:54:59;;;;;;;30.02;16.98;;;;;;;16.62;98.13;102371.22;5039059;28;20072;-61
2021/09/07 04:57:25;;;;;;;26.13;15.90;;;;;;;16.65;97.86;102370.13;5021765;28;20049;-61
2021/09/07 04:59:51;;;;;;;29.60;16.00;;;;;;;16.65;97.80;102375.44;5034229;28;20080;-60
2021/09/07 05:02:18;;;;;;;29.00;16.92;;;;;;;16.66;96.73;102371.78;5045150;28;20508;-61
2021/09/07 05:04:45;;;;;;;30.60;16.83;;;;;;;16.60;97.58;102379.34;5038974;28;20064;-60
2021/09/07 05:07:11;;;;;;;28.70;16.05;;;;;;;16.60;97.66;102376.72;5044083;28;20073;-61
2021/09/07 05:09:39;;;;;;;33.47;18.05;;;;;;;16.58;97.00;102376.03;5029623;28;20130;-62
2021/09/07 05:12:06;;;;;;;29.05;17.58;;;;;;;16.58;97.49;102378.69;5039364;28;20167;-62
2021/09/07 05:14:32;;;;;;;30.90;15.10;;;;;;;16.57;96.79;102377.00;5041302;28;20053;-61
2021/09/07 05:16:59;;;;;;;25.73;16.13;;;;;;;16.57;97.54;102373.53;5036209;28;20049;-62
2021/09/07 05:19:25;;;;;;;26.88;14.70;;;;;;;16.55;98.27;102381.59;5045651;28;20469;-62
2021/09/07 05:21:52;;;;;;;30.23;16.38;;;;;;;16.49;97.80;102384.84;5037072;28;20139;-61
2021/09/07 05:24:18;;;;;;;24.63;15.23;;;;;;;16.47;98.31;102386.00;5037392;28;20137;-62
2021/09/07 05:26:45;;;;;;;28.35;15.48;;;;;;;16.44;99.53;102386.25;5034493;28;20556;-61
2021/09/07 05:29:11;;;;;;;27.55;14.93;;;;;;;16.44;100.00;102391.56;5042164;28;20461;-62
2021/09/07 05:31:38;;;;;;;28.90;15.20;;;;;;;16.43;100.00;102392.56;5042165;28;20076;-61
2021/09/07 05:34:04;;;;;;;27.15;15.40;;;;;;;16.48;100.00;102388.47;5035114;28;20048;-61
2021/09/07 05:36:31;;;;;;;35.95;16.90;;;;;;;16.52;100.00;102395.13;5039490;28;20072;-61
2021/09/07 05:38:58;;;;;;;43.70;18.20;;;;;;;16.58;100.00;102396.34;5028379;28;20222;-60
2021/09/07 05:41:24;;;;;;;43.22;19.35;;;;;;;16.60;100.00;102392.59;5043083;28;20055;-62
2021/09/07 05:43:51;;;;;;;48.47;17.60;;;;;;;16.66;100.00;102395.63;5037972;28;20059;-60
2021/09/07 05:46:17;;;;;;;32.45;17.13;;;;;;;16.68;100.00;102396.31;5044773;28;20111;-61
2021/09/07 05:48:45;;;;;;;43.45;16.77;;;;;;;16.70;100.00;102397.84;5044643;28;20087;-62
2021/09/07 05:51:12;;;;;;;33.15;17.45;;;;;;;16.74;100.00;102403.66;5032181;28;20072;-62
2021/09/07 05:53:40;;;;;;;39.67;17.90;;;;;;;16.75;100.00;102395.56;5042124;28;20052;-62
2021/09/07 05:56:06;;;;;;;48.47;20.30;;;;;;;16.79;100.00;102407.53;5037047;28;20083;-62
2021/09/07 05:58:33;;;;;;;39.38;19.80;;;;;;;16.79;100.00;102401.41;5045045;28;20136;-62
2021/09/07 06:00:59;;;;;;;43.40;19.85;;;;;;;16.80;100.00;102406.56;5037135;28;20063;-61
2021/09/07 06:03:26;;;;;;;59.88;20.55;;;;;;;16.81;100.00;102399.44;5046195;28;20052;-62
2021/09/07 06:05:53;;;;;;;43.30;19.60;;;;;;;16.84;100.00;102407.13;5039337;28;20057;-61
2021/09/07 06:08:20;;;;;;;37.28;20.00;;;;;;;16.87;100.00;102404.16;5036532;28;20049;-62
2021/09/07 06:10:47;;;;;;;52.25;20.00;;;;;;;16.88;100.00;102405.84;5043744;28;20049;-62
2021/09/07 06:13:13;;;;;;;42.60;20.48;;;;;;;16.87;100.00;102401.53;5037764;28;20079;-61
2021/09/07 06:15:41;;;;;;;39.50;19.83;;;;;;;16.91;100.00;102402.88;5044033;28;20317;-61
2021/09/07 06:18:08;;;;;;;49.47;21.05;;;;;;;16.92;100.00;102406.41;5037610;28;20078;-61
2021/09/07 06:20:35;;;;;;;50.60;19.77;;;;;;;16.96;100.00;102402.47;5033981;28;20485;-61
2021/09/07 06:23:01;;;;;;;51.92;19.95;;;;;;;17.00;100.00;102411.78;5034656;28;20990;-60
2021/09/07 06:25:28;;;;;;;47.38;20.63;;;;;;;17.02;100.00;102406.31;5040175;28;20485;-62
2021/09/07 06:27:54;;;;;;;47.42;23.30;;;;;;;17.09;100.00;102408.22;5041253;28;20225;-62
2021/09/07 06:30:21;;;;;;;41.30;21.35;;;;;;;17.16;100.00;102403.16;5033231;28;20095;-61
2021/09/07 06:32:47;;;;;;;47.13;22.48;;;;;;;17.24;100.00;102402.38;5038038;28;20263;-60
2021/09/07 06:35:14;;;;;;;55.30;21.90;;;;;;;17.31;100.00;102398.97;5027751;28;20102;-64
2021/09/07 06:37:42;;;;;;;43.28;23.48;;;;;;;17.45;100.00;102402.09;5042784;28;20894;-61
2021/09/07 06:40:10;;;;;;;46.58;21.20;;;;;;;17.55;100.00;102400.16;5041032;28;20057;-62
2021/09/07 06:42:37;;;;;;;42.33;23.80;;;;;;;17.63;100.00;102415.31;5042302;28;20163;-61
2021/09/07 06:45:04;;;;;;;42.63;22.65;;;;;;;17.73;100.00;102408.09;5041999;28;20162;-62
2021/09/07 06:47:31;;;;;;;48.38;23.70;;;;;;;17.82;100.00;102408.97;5034363;28;20455;-62
2021/09/07 06:50:00;;;;;;;53.95;24.13;;;;;;;17.91;100.00;102408.06;5038467;28;20080;-62
2021/09/07 06:52:28;;;;;;;41.20;23.42;;;;;;;18.02;99.71;102405.16;5033430;28;20075;-62
2021/09/07 06:54:54;;;;;;;38.40;21.90;;;;;;;18.10;100.00;102407.03;5040831;28;20132;-62
2021/09/07 06:57:21;;;;;;;45.05;25.27;;;;;;;18.18;99.46;102407.06;5036948;28;20202;-62
2021/09/07 06:59:47;;;;;;;39.42;21.50;;;;;;;18.25;96.81;102400.16;5040682;28;20099;-62
2021/09/07 07:02:14;;;;;;;44.00;24.67;;;;;;;18.36;97.51;102409.66;5035628;28;20642;-62
2021/09/07 07:04:41;;;;;;;45.75;25.15;;;;;;;18.44;97.83;102412.34;5029307;28;20534;-62
2021/09/07 07:07:07;;;;;;;46.08;24.08;;;;;;;18.55;97.09;102401.41;5042058;28;20298;-62
2021/09/07 07:09:34;;;;;;;40.80;24.35;;;;;;;18.63;96.31;102407.78;5031847;28;20420;-62
2021/09/07 07:12:00;;;;;;;42.97;24.70;;;;;;;18.72;95.31;102404.16;5040457;28;20140;-62
2021/09/07 07:14:27;;;;;;;47.75;26.73;;;;;;;18.81;95.00;102407.69;5032930;28;20601;-62
2021/09/07 07:16:53;;;;;;;46.58;27.08;;;;;;;18.84;92.99;102407.38;5035479;28;20110;-61
2021/09/07 07:19:20;;;;;;;43.10;25.67;;;;;;;18.91;93.46;102406.53;5043014;28;20052;-62
2021/09/07 07:21:49;;;;;;;49.58;26.15;;;;;;;19.00;90.95;102404.72;5033523;28;20095;-62
2021/09/07 07:24:16;;;;;;;48.70;25.88;;;;;;;19.12;90.48;102414.06;5041036;28;20048;-62
2021/09/07 07:26:58;;;;;;;46.97;25.10;;;;;;;19.23;89.36;102410.25;5031763;28;20054;-62
2021/09/07 07:29:24;;;;;;;44.90;25.08;;;;;;;19.33;88.57;102412.75;5020171;28;20789;-62
2021/09/07 07:31:51;;;;;;;48.65;25.85;;;;;;;19.43;87.34;102415.25;5028898;28;20156;-62
2021/09/07 07:34:18;;;;;;;46.55;25.88;;;;;;;19.55;86.91;102412.06;5042383;28;20049;-62
2021/09/07 07:36:44;;;;;;;48.67;27.13;;;;;;;19.63;86.21;102415.75;5039576;28;20145;-62
2021/09/07 07:39:11;;;;;;;44.85;24.27;;;;;;;19.73;84.96;102421.75;5033285;28;20123;-62
2021/09/07 07:41:37;;;;;;;37.58;21.33;;;;;;;19.81;83.90;102428.91;5039995;28;20135;-62
2021/09/07 07:44:04;;;;;;;46.33;24.95;;;;;;;19.93;83.68;102430.19;5034225;28;20259;-62
2021/09/07 07:46:30;;;;;;;45.88;26.30;;;;;;;19.95;81.59;102425.53;5034765;28;20136;-64
2021/09/07 07:48:57;;;;;;;46.90;26.83;;;;;;;20.09;83.02;102424.84;5037090;28;20785;-62
2021/09/07 07:51:23;;;;;;;51.03;27.67;;;;;;;20.18;81.56;102432.81;5038827;28;20140;-62
2021/09/07 07:53:49;;;;;;;53.33;27.40;;;;;;;20.29;81.57;102427.94;5041996;28;20492;-62
2021/09/07 07:56:16;;;;;;;50.72;28.17;;;;;;;20.38;82.33;102428.75;5031014;28;20564;-62
2021/09/07 07:58:42;;;;;;;52.70;26.92;;;;;;;20.46;81.58;102426.03;5034259;28;20504;-62
2021/09/07 08:01:09;;;;;;;52.25;28.13;;;;;;;20.59;81.37;102424.66;5031092;28;20060;-62
2021/09/07 08:03:35;;;;;;;45.85;27.10;;;;;;;20.68;80.09;102421.81;5039914;28;20041;-62
2021/09/07 08:06:02;;;;;;;46.50;25.42;;;;;;;20.86;78.70;102420.72;5032280;28;20408;-62
2021/09/07 08:08:29;;;;;;;41.05;21.88;;;;;;;21.00;77.22;102427.16;5042580;28;20132;-63
2021/09/07 08:10:56;;;;;;;47.65;27.85;;;;;;;21.08;77.52;102425.25;5037044;28;20131;-63
2021/09/07 08:13:22;;;;;;;43.25;25.70;;;;;;;21.25;76.89;102428.63;5034555;28;20103;-62
2021/09/07 08:15:49;;;;;;;38.70;23.52;;;;;;;21.36;75.56;102431.88;5042715;28;20496;-62
2021/09/07 08:18:15;;;;;;;32.90;20.35;;;;;;;21.50;74.44;102431.13;5037276;28;20522;-62
2021/09/07 08:20:43;;;;;;;46.42;26.38;;;;;;;21.56;73.61;102434.91;5040732;28;20139;-62
2021/09/07 08:23:10;;;;;;;44.65;27.90;;;;;;;21.64;73.95;102443.72;5029945;28;20512;-62
2021/09/07 08:25:36;;;;;;;48.88;27.08;;;;;;;21.73;73.45;102439.94;5044551;28;20052;-62
2021/09/07 08:28:03;;;;;;;33.35;19.08;;;;;;;21.90;72.71;102442.47;5045983;28;20543;-62
2021/09/07 08:30:29;;;;;;;43.95;26.48;;;;;;;21.96;72.67;102443.56;5035938;28;20239;-62
2021/09/07 08:32:56;;;;;;;53.22;27.55;;;;;;;22.00;71.97;102445.69;5045006;28;20449;-62
2021/09/07 08:35:23;;;;;;;44.17;26.95;;;;;;;22.08;71.26;102450.13;5030056;28;20081;-62
2021/09/07 08:37:49;;;;;;;47.60;27.75;;;;;;;22.09;70.64;102444.59;5038813;28;20055;-62
2021/09/07 08:40:16;;;;;;;47.38;26.88;;;;;;;22.24;71.97;102446.44;5036039;28;20172;-62
2021/09/07 08:42:43;;;;;;;46.72;27.73;;;;;;;22.24;69.89;102451.78;5043281;28;20144;-62
2021/09/07 08:45:13;;;;;;;53.13;26.73;;;;;;;22.32;69.80;102443.69;5044726;28;20122;-62
2021/09/07 08:47:42;;;;;;;40.45;25.70;;;;;;;22.49;70.20;102445.16;5040942;28;20140;-63
2021/09/07 08:50:08;;;;;;;38.85;24.73;;;;;;;22.68;68.77;102449.09;5038617;28;20053;-62
2021/09/07 08:52:36;;;;;;;47.10;23.95;;;;;;;22.83;68.78;102449.03;5033158;28;20048;-62
2021/09/07 08:55:04;;;;;;;48.08;26.13;;;;;;;22.96;68.73;102442.22;5043165;28;20095;-63
2021/09/07 08:57:30;;;;;;;42.20;24.83;;;;;;;23.06;67.95;102448.09;5035543;28;20087;-62
2021/09/07 09:00:01;;;;;;;40.35;25.35;;;;;;;23.14;68.57;102447.16;5044785;28;20135;-62
2021/09/07 09:02:29;;;;;;;43.08;26.75;;;;;;;23.15;66.37;102443.44;5036353;28;20156;-62
2021/09/07 09:04:58;;;;;;;44.75;27.48;;;;;;;23.28;66.52;102438.22;5036968;28;20048;-62
2021/09/07 09:07:29;;;;;;;41.42;25.10;;;;;;;23.33;64.75;102441.16;5027714;28;20137;-63
2021/09/07 09:09:59;;;;;;;41.40;24.70;;;;;;;23.37;64.63;102436.25;5033672;28;20053;-62
2021/09/07 09:12:32;;;;;;;41.45;24.70;;;;;;;23.49;62.88;102437.38;5043080;28;20780;-63
2021/09/07 09:14:58;;;;;;;40.45;24.95;;;;;;;23.60;62.84;102446.72;5035316;28;20053;-62
2021/09/07 09:17:32;;;;;;;39.85;23.55;;;;;;;23.72;63.10;102439.84;5041994;28;20095;-62
2021/09/07 09:20:02;;;;;;;29.80;20.13;;;;;;;23.80;61.97;102436.22;5036081;28;20053;-63
2021/09/07 09:22:59;;;;;;;34.35;21.58;;;;;;;23.79;59.04;102434.53;5044767;28;20400;-62
2021/09/07 09:25:29;;;;;;;32.33;19.58;;;;;;;23.85;57.61;102433.75;5022879;28;20570;-62
2021/09/07 09:27:55;;;;;;;35.58;20.77;;;;;;;24.10;59.51;102434.13;5047229;28;20606;-62
2021/09/07 09:30:25;;;;;;;33.85;19.70;;;;;;;24.34;57.69;102437.34;5044823;28;20076;-62
2021/09/07 09:32:58;;;;;;;33.00;20.20;;;;;;;24.59;60.04;102433.16;5030807;28;20044;-62
2021/09/07 09:35:24;;;;;;;34.28;21.08;;;;;;;24.74;59.07;102437.53;5042315;28;20055;-63
2021/09/07 09:37:59;;;;;;;36.35;21.15;;;;;;;24.83;57.81;102441.69;5034765;28;20325;-63
2021/09/07 09:40:27;;;;;;;37.40;24.00;;;;;;;24.82;57.40;102430.13;5041391;28;20492;-63
2021/09/07 09:42:57;;;;;;;39.42;23.17;;;;;;;25.03;57.85;102422.94;5034592;28;20334;-63
2021/09/07 09:45:31;;;;;;;35.30;22.15;;;;;;;25.17;57.11;102434.50;5036331;28;20135;-61
2021/09/07 09:47:59;;;;;;;42.50;23.52;;;;;;;25.29;57.03;102426.72;5030333;28;20053;-63
2021/09/07 09:50:26;;;;;;;35.33;22.85;;;;;;;25.42;56.05;102430.25;5040531;28;20060;-63
2021/09/07 09:52:55;;;;;;;37.13;21.88;;;;;;;25.57;55.02;102432.69;5042748;28;20134;-63
2021/09/07 09:55:22;;;;;;;36.40;21.63;;;;;;;25.61;54.52;102427.75;5035484;28;20603;-63
2021/09/07 09:57:49;;;;;;;35.05;20.63;;;;;;;25.82;54.58;102421.31;5041989;28;20137;-63
2021/09/07 10:00:16;;;;;;;34.58;20.83;;;;;;;25.87;54.96;102421.50;5027485;28;20140;-63
2021/09/07 10:02:44;;;;;;;30.35;19.77;;;;;;;25.98;55.28;102430.81;5039414;28;20132;-63
2021/09/07 10:05:13;;;;;;;33.38;19.45;;;;;;;26.16;53.40;102424.78;5034983;28;20080;-63
2021/09/07 10:07:59;;;;;;;28.10;18.00;;;;;;;26.37;52.02;102427.19;5031703;28;20057;-63
2021/09/07 10:10:26;;;;;;;30.98;19.52;;;;;;;26.37;49.43;102420.97;5042794;28;20338;-63
2021/09/07 10:12:57;;;;;;;28.85;17.38;;;;;;;26.50;49.95;102420.94;5036793;28;20048;-63
2021/09/07 10:15:35;;;;;;;29.45;18.40;;;;;;;26.62;49.10;102418.41;5041701;28;20419;-63
2021/09/07 10:23:59;;;;;;;28.77;16.88;;;;;;;27.21;47.94;102405.59;4999920;28;20581;-63
2021/09/07 10:26:41;;;;;;;24.85;16.65;;;;;;;27.51;47.61;102397.69;5035736;28;20490;-63
2021/09/07 10:29:10;;;;;;;22.85;15.80;;;;;;;27.69;47.44;102396.06;5030954;28;20172;-63
2021/09/07 10:31:41;;;;;;;23.58;15.70;;;;;;;27.75;44.51;102403.25;5041159;28;20077;-63
2021/09/07 10:34:11;;;;;;;24.67;16.70;;;;;;;27.76;44.55;102400.34;5038693;28;20393;-63
2021/09/07 10:37:05;;;;;;;22.27;15.00;;;;;;;27.95;45.59;102397.66;5041672;28;20476;-63
2021/09/07 10:39:43;;;;;;;22.73;15.48;;;;;;;28.15;45.09;102398.25;5035220;28;20543;-63
2021/09/07 10:42:32;;;;;;;;;;;;;;;28.21;45.97;102396.53;5035512;28;20457;-63
2021/09/07 10:45:00;;;;;;;30.10;19.67;;;;;;;28.40;45.74;102400.00;5035975;28;20012;-63
2021/09/07 10:47:43;;;;;;;27.08;17.70;;;;;;;28.64;46.87;102390.19;5040775;28;20528;-62
2021/09/07 10:50:10;;;;;;;27.58;18.27;;;;;;;28.74;44.28;102386.94;5037506;28;20115;-63
2021/09/07 10:52:37;;;;;;;30.10;19.60;;;;;;;28.84;44.34;102387.19;5037928;28;20309;-62
2021/09/07 10:55:06;;;;;;;32.35;20.73;;;;;;;28.99;45.08;102389.41;5036393;28;20139;-63
2021/09/07 10:57:37;;;;;;;29.73;19.40;;;;;;;29.01;44.70;102383.78;5028866;28;20147;-63
2021/09/07 11:00:19;;;;;;;30.20;20.00;;;;;;;28.98;45.26;102374.28;5041393;28;20164;-63
2021/09/07 11:02:48;;;;;;;27.88;18.48;;;;;;;29.01;44.62;102376.53;5033207;28;20076;-63
2021/09/07 11:05:36;;;;;;;31.70;20.70;;;;;;;28.74;43.52;102376.94;5040951;28;20087;-63
2021/09/07 11:08:18;;;;;;;29.98;17.85;;;;;;;28.96;44.32;102379.91;5028357;28;20072;-63
2021/09/07 11:10:51;;;;;;;32.38;20.85;;;;;;;28.84;43.59;102373.69;5037638;28;20084;-63
2021/09/07 11:13:29;;;;;;;30.48;20.67;;;;;;;28.97;44.04;102375.31;5036714;28;20156;-64
2021/09/07 11:16:01;;;;;;;32.15;20.75;;;;;;;29.09;43.78;102369.94;5041333;28;20085;-63
2021/09/07 11:18:31;;;;;;;35.22;20.55;;;;;;;29.28;43.84;102360.72;5041208;28;20063;-63